createdAt,value
2018-11-13T00:03:43.991Z,90.70
2018-11-13T00:09:48.824Z,90.84
2018-11-13T00:15:53.547Z,91.56
2018-11-13T00:21:58.666Z,92.04
2018-11-13T00:28:03.447Z,92.61
2018-11-13T00:34:08.243Z,93.18
2018-11-13T00:40:13.543Z,93.29
2018-11-13T00:46:18.299Z,93.22
2018-11-13T00:52:23.523Z,92.92
2018-11-13T00:58:28.313Z,93.88
2018-11-13T01:04:33.085Z,93.32
2018-11-13T01:10:37.923Z,93.11
2018-11-13T01:16:42.739Z,94.05
2018-11-13T01:22:47.562Z,94.12
2018-11-13T01:28:52.510Z,93.71
2018-11-13T01:34:57.297Z,93.45
2018-11-13T01:41:02.111Z,92.93
2018-11-13T01:47:08.186Z,93.51
2018-11-13T01:53:12.935Z,94.13
2018-11-13T01:59:17.655Z,94.41
2018-11-13T02:05:23.720Z,94.48
2018-11-13T02:11:28.573Z,94.37
2018-11-13T02:17:33.322Z,93.54
2018-11-13T02:23:38.862Z,94.36
2018-11-13T02:29:43.585Z,94.72
2018-11-13T02:35:48.283Z,94.69
2018-11-13T02:41:53.170Z,94.22
2018-11-13T02:47:58.166Z,94.55
2018-11-13T02:54:02.906Z,93.89
2018-11-13T03:00:11.204Z,94.75
2018-11-13T03:06:15.968Z,93.50
2018-11-13T03:12:21.012Z,93.82
2018-11-13T03:18:25.801Z,93.89
2018-11-13T03:24:30.539Z,94.40
2018-11-13T03:30:35.413Z,95.00
2018-11-13T03:36:40.286Z,94.82
2018-11-13T03:42:45.982Z,94.11
2018-11-13T03:48:50.715Z,94.66
2018-11-13T03:54:55.531Z,94.48
2018-11-13T04:01:00.343Z,94.17
2018-11-13T04:07:05.249Z,94.56
2018-11-13T04:13:10.405Z,95.03
2018-11-13T04:19:15.453Z,94.61
2018-11-13T04:25:20.301Z,94.78
2018-11-13T04:31:25.057Z,95.24
2018-11-13T04:37:30.104Z,94.76
2018-11-13T04:43:35.659Z,95.15
2018-11-13T04:49:40.396Z,95.03
2018-11-13T04:55:45.524Z,95.10
2018-11-13T05:01:50.245Z,95.60
2018-11-13T05:07:55.950Z,95.91
2018-11-13T05:14:00.628Z,95.46
2018-11-13T05:20:06.474Z,95.54
2018-11-13T05:26:11.249Z,95.53
2018-11-13T05:32:16.035Z,95.33
2018-11-13T05:38:20.777Z,96.04
2018-11-13T05:44:25.556Z,96.09
2018-11-13T05:50:30.338Z,96.29
2018-11-13T05:56:35.661Z,96.01
2018-11-13T06:02:40.455Z,96.00
2018-11-13T06:08:45.261Z,96.15
2018-11-13T06:14:50.329Z,95.16
2018-11-13T06:20:55.074Z,95.29
2018-11-13T06:27:00.120Z,94.75
2018-11-13T06:33:05.726Z,95.57
2018-11-13T06:39:12.715Z,95.59
2018-11-13T06:45:19.837Z,96.00
2018-11-13T06:51:24.545Z,95.06
2018-11-13T06:57:29.950Z,96.06
2018-11-13T07:03:35.067Z,95.90
2018-11-13T07:09:39.852Z,95.14
2018-11-13T07:15:44.590Z,95.17
2018-11-13T07:21:49.680Z,95.33
2018-11-13T07:27:55.133Z,95.08
2018-11-13T07:34:00.452Z,94.88
2018-11-13T07:40:05.845Z,94.49
2018-11-13T07:46:10.932Z,93.73
2018-11-13T07:52:16.071Z,93.53
2018-11-13T07:58:20.798Z,92.38
2018-11-13T08:04:25.571Z,91.85
2018-11-13T08:10:30.287Z,92.19
2018-11-13T08:16:35.329Z,91.14
2018-11-13T08:22:40.380Z,91.10
2018-11-13T08:28:45.228Z,90.24
2018-11-13T08:34:49.965Z,91.14
2018-11-13T08:40:54.648Z,91.18
2018-11-13T08:46:59.505Z,90.21
2018-11-13T08:53:04.636Z,91.80
2018-11-13T08:59:09.456Z,90.61
2018-11-13T09:05:14.281Z,90.47
2018-11-13T09:11:18.909Z,88.86
2018-11-13T09:17:23.632Z,87.79
2018-11-13T09:23:28.478Z,88.40
2018-11-13T09:29:33.432Z,85.01
2018-11-13T09:35:38.245Z,85.89
2018-11-13T09:41:43.009Z,84.37
2018-11-13T09:47:48.339Z,85.76
2018-11-13T09:53:52.997Z,83.41
2018-11-13T09:59:58.173Z,81.71
2018-11-13T10:06:02.999Z,81.11
2018-11-13T10:12:07.749Z,80.73
2018-11-13T10:18:13.393Z,82.01
2018-11-13T10:24:18.481Z,78.85
2018-11-13T10:30:24.220Z,78.66
2018-11-13T10:36:29.253Z,78.80
2018-11-13T10:42:34.407Z,78.14
2018-11-13T10:48:39.807Z,77.42
2018-11-13T10:54:44.578Z,77.21
2018-11-13T11:00:58.562Z,77.93
2018-11-13T11:07:03.277Z,76.80
2018-11-13T11:13:08.687Z,77.65
2018-11-13T11:19:13.368Z,75.92
2018-11-13T11:25:18.338Z,73.29
2018-11-13T11:31:22.986Z,73.77
2018-11-13T11:37:27.729Z,74.12
2018-11-13T11:43:32.413Z,74.91
2018-11-13T11:49:37.673Z,74.33
2018-11-13T11:55:42.949Z,72.41
2018-11-13T12:01:47.681Z,71.76
2018-11-13T12:07:52.833Z,70.53
2018-11-13T12:13:58.273Z,70.28
2018-11-13T12:20:03.346Z,69.59
2018-11-13T12:26:08.837Z,68.65
2018-11-13T12:32:13.535Z,69.23
2018-11-13T12:38:18.509Z,66.66
2018-11-13T12:44:23.434Z,65.94
2018-11-13T12:50:33.299Z,65.94
2018-11-13T12:56:38.063Z,65.99
2018-11-13T13:02:43.142Z,64.37
2018-11-13T13:08:47.959Z,64.29
2018-11-13T13:14:52.594Z,63.33
2018-11-13T13:20:57.274Z,62.57
2018-11-13T13:27:02.002Z,64.14
2018-11-13T13:33:07.078Z,64.34
2018-11-13T13:39:11.804Z,63.48
2018-11-13T13:45:17.322Z,63.14
2018-11-13T13:51:22.053Z,63.24
2018-11-13T13:57:26.759Z,62.41
2018-11-13T14:03:31.890Z,62.52
2018-11-13T14:09:36.661Z,64.73
2018-11-13T14:15:41.615Z,64.94
2018-11-13T14:21:46.405Z,63.70
2018-11-13T14:27:51.597Z,61.51
2018-11-13T14:33:56.813Z,63.82
2018-11-13T14:40:01.865Z,68.32
2018-11-13T14:46:07.244Z,75.21
2018-11-13T14:52:11.972Z,75.57
2018-11-13T14:58:17.714Z,75.99
2018-11-13T15:04:22.424Z,75.92
2018-11-13T15:10:43.716Z,75.92
2018-11-13T15:16:48.945Z,76.88
2018-11-13T15:22:53.639Z,76.76
2018-11-13T15:28:58.482Z,76.12
2018-11-13T15:35:03.228Z,75.85
2018-11-13T15:41:08.029Z,76.39
2018-11-13T15:47:13.026Z,76.00
2018-11-13T15:53:17.690Z,77.16
2018-11-13T15:59:23.129Z,77.22
2018-11-13T16:05:40.641Z,78.26
2018-11-13T16:11:45.306Z,79.20
2018-11-13T16:17:50.733Z,79.27
2018-11-13T16:23:56.514Z,80.12
2018-11-13T16:30:01.636Z,80.05
2018-11-13T16:36:06.828Z,79.86
2018-11-13T16:42:11.647Z,80.08
2018-11-13T16:48:16.622Z,80.75
2018-11-13T16:54:21.658Z,80.83
2018-11-13T17:00:26.458Z,81.08
2018-11-13T17:06:31.124Z,81.64
2018-11-13T17:12:35.869Z,82.15
2018-11-13T17:18:40.542Z,82.98
2018-11-13T17:24:45.242Z,83.06
2018-11-13T17:30:50.440Z,82.31
2018-11-13T17:36:55.133Z,81.66
2018-11-13T17:43:01.178Z,82.01
2018-11-13T17:49:06.348Z,81.88
2018-11-13T17:55:12.470Z,82.06
2018-11-13T18:01:17.208Z,81.42
2018-11-13T18:07:21.920Z,81.79
2018-11-13T18:13:27.761Z,80.57
2018-11-13T18:19:32.446Z,81.93
2018-11-13T18:25:37.187Z,81.40
2018-11-13T18:31:42.131Z,81.92
2018-11-13T18:37:47.264Z,80.76
2018-11-13T18:43:52.319Z,80.26
2018-11-13T18:49:57.859Z,80.36
2018-11-13T18:56:02.172Z,79.94
2018-11-13T19:02:07.818Z,79.68
2018-11-13T19:08:12.498Z,80.24
2018-11-13T19:14:17.718Z,79.82
2018-11-13T19:20:23.545Z,80.03
2018-11-13T19:26:28.211Z,79.78
2018-11-13T19:32:33.539Z,80.84
2018-11-13T19:38:38.208Z,81.52
2018-11-13T19:44:43.441Z,81.46
2018-11-13T19:50:48.060Z,83.10
2018-11-13T19:56:52.707Z,82.60
2018-11-13T20:02:58.740Z,83.44
2018-11-13T20:09:03.838Z,83.77
2018-11-13T20:15:10.531Z,84.03
2018-11-13T20:21:15.364Z,84.31
2018-11-13T20:27:20.196Z,84.31
2018-11-13T20:33:25.293Z,84.03
2018-11-13T20:39:30.884Z,83.67
2018-11-13T20:45:35.944Z,83.97
2018-11-13T20:51:40.751Z,82.63
2018-11-13T20:57:45.451Z,82.66
2018-11-13T21:03:50.242Z,81.91
2018-11-13T21:09:54.942Z,81.96
2018-11-13T21:15:59.689Z,82.84
2018-11-13T21:22:04.540Z,82.91
2018-11-13T21:28:09.796Z,83.75
2018-11-13T21:34:14.845Z,84.14
2018-11-13T21:40:21.333Z,83.42
2018-11-13T21:46:26.129Z,84.05
2018-11-13T21:52:30.812Z,84.71
2018-11-13T21:58:35.549Z,84.19
2018-11-13T22:04:43.160Z,83.79
2018-11-13T22:10:47.851Z,83.98
2018-11-13T22:16:52.681Z,83.20
2018-11-13T22:22:59.072Z,83.51
2018-11-13T22:29:04.195Z,83.14
2018-11-13T22:35:10.921Z,84.44
2018-11-13T22:41:16.272Z,84.53
2018-11-13T22:47:20.965Z,84.32
2018-11-13T22:53:25.691Z,85.19
2018-11-13T22:59:30.395Z,86.13
2018-11-13T23:05:35.034Z,86.77
2018-11-13T23:11:39.722Z,87.40
2018-11-13T23:17:45.168Z,87.40
2018-11-13T23:23:49.900Z,86.65
2018-11-13T23:29:54.559Z,86.86
2018-11-13T23:35:59.951Z,87.23
2018-11-13T23:42:04.642Z,87.23
2018-11-13T23:48:09.326Z,86.98
2018-11-13T23:54:14.758Z,87.11
